Time;durP1;ratioP1;P1;durP2;ratioP2;P2;SDS_P1;SDS_P2;PMS_P1;PMS_P2;Temp;Humidity;BMP_temperature;BMP_pressure;BME280_temperature;BME280_humidity;BME280_pressure;Samples;Min_cycle;Max_cycle;Signal;HPM_P1;HPM_P2
2021/05/02 00:00:35;;;;;;;13.05;10.78;;;;;;;14.62;77.20;99045.83;130319;1098;23026;-62
2021/05/02 00:03:04;;;;;;;16.18;11.25;;;;;;;14.60;77.41;99036.27;130358;1098;23411;-62
2021/05/02 00:05:35;;;;;;;17.30;11.33;;;;;;;14.56;77.48;99032.52;130327;1098;22539;-62
2021/05/02 00:08:04;;;;;;;14.08;10.18;;;;;;;14.56;77.57;99027.03;130362;1098;22524;-62
2021/05/02 00:10:32;;;;;;;11.73;10.15;;;;;;;14.54;77.86;99030.06;130325;1098;22649;-62
2021/05/02 00:13:01;;;;;;;14.83;10.18;;;;;;;14.53;77.50;99020.20;130365;1098;23428;-62
2021/05/02 00:15:33;;;;;;;15.20;10.75;;;;;;;14.53;77.61;99024.88;130349;1098;22703;-58
2021/05/02 00:18:01;;;;;;;12.43;10.08;;;;;;;14.52;77.49;99006.79;130387;1098;22514;-59
2021/05/02 00:20:29;;;;;;;13.73;10.73;;;;;;;14.50;77.78;99013.38;130267;1098;22580;-58
2021/05/02 00:23:02;;;;;;;11.98;10.35;;;;;;;14.50;77.82;99009.83;130057;1098;22561;-58
2021/05/02 00:25:31;;;;;;;14.95;11.50;;;;;;;14.47;78.22;98997.52;130365;1098;22534;-58
2021/05/02 00:28:00;;;;;;;14.25;11.35;;;;;;;14.47;77.92;99004.92;130369;1098;23100;-58
2021/05/02 00:30:28;;;;;;;12.08;10.48;;;;;;;14.45;78.31;98998.92;130354;1098;24851;-59
2021/05/02 00:32:56;;;;;;;12.43;9.85;;;;;;;14.45;78.11;99007.14;130266;1098;22617;-58
2021/05/02 00:35:24;;;;;;;15.15;10.10;;;;;;;14.44;78.23;99000.84;130401;1098;23305;-59
2021/05/02 00:37:53;;;;;;;14.45;10.55;;;;;;;14.41;78.12;98995.98;130351;1098;22534;-59
2021/05/02 00:40:30;;;;;;;14.05;9.88;;;;;;;14.40;78.45;98991.61;130358;1098;22597;-59
2021/05/02 00:42:58;;;;;;;10.15;8.65;;;;;;;14.38;78.33;98996.53;130317;1098;22548;-59
2021/05/02 00:45:39;;;;;;;14.78;9.00;;;;;;;14.37;78.63;98992.16;130389;1098;22589;-58
2021/05/02 00:48:28;;;;;;;11.93;9.25;;;;;;;14.36;78.93;98986.97;130275;1098;22579;-59
2021/05/02 00:51:01;;;;;;;13.85;8.70;;;;;;;14.35;78.82;98985.34;130363;1098;22557;-58
2021/05/02 00:53:48;;;;;;;11.13;8.48;;;;;;;14.36;78.59;98976.01;130353;1098;23074;-58
2021/05/02 00:56:21;;;;;;;10.85;7.83;;;;;;;14.36;78.82;98976.83;128409;1098;22776;-62
2021/05/02 00:58:53;;;;;;;9.70;8.70;;;;;;;14.36;78.66;98973.27;130364;1098;22491;-62
2021/05/02 01:01:22;;;;;;;9.63;7.48;;;;;;;14.37;78.94;98977.64;130359;1098;22585;-62
2021/05/02 01:03:51;;;;;;;9.15;7.95;;;;;;;14.36;78.34;98976.01;130315;1098;22535;-62
2021/05/02 01:06:22;;;;;;;12.40;7.75;;;;;;;14.35;78.98;98980.67;130368;1098;22687;-62
2021/05/02 01:08:56;;;;;;;10.20;8.05;;;;;;;14.35;78.90;98972.45;130368;1098;22523;-62
2021/05/02 01:11:37;;;;;;;9.98;8.20;;;;;;;14.33;79.02;98976.59;130398;1098;22683;-62
2021/05/02 01:14:05;;;;;;;9.63;7.95;;;;;;;14.32;78.61;98974.97;130286;1098;22539;-63
2021/05/02 01:16:34;;;;;;;10.48;8.18;;;;;;;14.31;78.73;98976.89;130372;1098;23496;-62
2021/05/02 01:19:08;;;;;;;11.05;7.40;;;;;;;14.31;78.96;98967.84;130349;1098;22584;-63
2021/05/02 01:21:37;;;;;;;9.00;7.88;;;;;;;14.30;79.18;98975.25;130345;1098;22535;-63
2021/05/02 01:24:10;;;;;;;7.83;6.73;;;;;;;14.30;79.01;98971.70;130320;1098;23584;-62
2021/05/02 01:26:39;;;;;;;10.53;7.43;;;;;;;14.30;79.27;98964.30;130380;1098;22522;-62
2021/05/02 01:29:07;;;;;;;9.53;6.98;;;;;;;14.30;79.01;98966.22;130330;1098;22510;-62
2021/05/02 01:31:35;;;;;;;8.63;6.95;;;;;;;14.30;79.03;98967.03;130406;1098;23154;-62
2021/05/02 01:34:03;;;;;;;7.70;6.83;;;;;;;14.29;78.98;98967.33;130357;1098;22549;-62
2021/05/02 01:36:31;;;;;;;10.03;7.30;;;;;;;14.29;79.25;98965.41;130375;1098;22563;-62
2021/05/02 01:39:02;;;;;;;7.80;6.97;;;;;;;14.29;79.05;98964.59;130310;1098;22562;-61
2021/05/02 01:41:30;;;;;;;10.03;6.55;;;;;;;14.28;78.98;98962.98;130365;1098;22570;-62
2021/05/02 01:43:59;;;;;;;9.10;6.53;;;;;;;14.27;78.66;98964.09;130322;1098;22612;-63
2021/05/02 01:46:34;;;;;;;7.75;6.55;;;;;;;14.26;78.80;98960.54;130377;1098;22536;-63
2021/05/02 01:49:02;;;;;;;7.78;6.23;;;;;;;14.25;78.84;98956.16;130328;1098;23377;-63
2021/05/02 01:51:32;;;;;;;7.98;5.43;;;;;;;14.26;79.20;98955.05;130357;1098;22559;-62
2021/05/02 01:54:00;;;;;;;7.38;5.70;;;;;;;14.27;79.05;98950.39;130350;1098;22783;-62
2021/05/02 01:56:28;;;;;;;7.30;5.50;;;;;;;14.26;79.29;98948.77;128032;1093;25733;-61
2021/05/02 01:58:57;;;;;;;8.45;6.35;;;;;;;14.26;79.13;98948.77;130083;1098;22544;-62
2021/05/02 02:01:26;;;;;;;9.35;6.38;;;;;;;14.25;78.76;98942.47;130304;1098;22545;-62
2021/05/02 02:03:55;;;;;;;8.55;5.55;;;;;;;14.23;79.02;98941.94;130369;1098;22536;-62
2021/05/02 02:06:23;;;;;;;11.33;5.65;;;;;;;14.21;79.04;98937.86;130147;1098;22552;-62
2021/05/02 02:08:52;;;;;;;8.30;5.28;;;;;;;14.18;79.39;98931.05;130401;1098;23138;-63
2021/05/02 02:11:20;;;;;;;7.43;5.03;;;;;;;14.16;79.15;98933.27;130023;1098;22765;-63
2021/05/02 02:13:50;;;;;;;6.45;5.15;;;;;;;14.15;79.30;98931.63;130372;1098;22542;-63
2021/05/02 02:16:18;;;;;;;6.30;5.33;;;;;;;14.14;79.05;98936.30;130255;1098;22558;-62
2021/05/02 02:18:46;;;;;;;6.33;5.10;;;;;;;14.14;79.46;98935.48;130052;1098;23511;-63
2021/05/02 02:21:14;;;;;;;8.55;5.55;;;;;;;14.15;79.43;98929.70;130301;1098;22534;-63
2021/05/02 02:23:43;;;;;;;5.33;4.68;;;;;;;14.18;79.61;98935.70;130372;1098;22594;-63
2021/05/02 02:26:16;;;;;;;6.40;4.90;;;;;;;14.18;79.42;98936.52;128544;1098;22749;-62
2021/05/02 02:28:45;;;;;;;8.75;5.60;;;;;;;14.20;79.25;98938.97;130377;1098;23769;-63
2021/05/02 02:31:13;;;;;;;6.48;5.35;;;;;;;14.22;79.69;98937.57;130347;1098;23424;-63
2021/05/02 02:33:42;;;;;;;6.03;4.83;;;;;;;14.24;79.31;98932.61;130382;1098;23495;-63
2021/05/02 02:36:11;;;;;;;6.98;5.65;;;;;;;14.25;79.47;98930.69;130354;1098;22575;-63
2021/05/02 02:38:40;;;;;;;5.60;4.85;;;;;;;14.25;79.16;98923.28;130362;1098;23479;-63
2021/05/02 02:41:14;;;;;;;7.48;5.28;;;;;;;14.25;79.06;98928.77;130382;1098;22555;-63
2021/05/02 02:43:51;;;;;;;6.60;5.73;;;;;;;14.26;78.90;98924.10;130355;1098;22556;-63
2021/05/02 02:46:20;;;;;;;7.85;5.45;;;;;;;14.22;79.11;98918.39;130315;1098;22606;-63
2021/05/02 02:48:57;;;;;;;8.60;5.88;;;;;;;14.21;79.20;98902.25;130313;1098;22625;-64
2021/05/02 02:51:27;;;;;;;6.43;4.93;;;;;;;14.19;79.16;98907.20;130308;1098;22564;-64
2021/05/02 02:53:56;;;;;;;6.15;4.98;;;;;;;14.16;79.03;98905.86;130378;1098;23288;-63
2021/05/02 02:56:24;;;;;;;5.15;4.55;;;;;;;14.15;79.22;98909.72;130332;1098;22583;-63
2021/05/02 02:58:57;;;;;;;5.40;4.38;;;;;;;14.14;79.08;98913.56;130358;1098;22519;-61
2021/05/02 03:01:25;;;;;;;7.40;4.93;;;;;;;14.10;79.00;98912.55;130342;1098;23812;-61
2021/05/02 03:03:55;;;;;;;6.80;4.90;;;;;;;14.08;79.09;98909.28;130315;1098;22710;-63
2021/05/02 03:06:25;;;;;;;9.83;5.03;;;;;;;14.07;79.44;98922.16;130349;1098;22539;-63
2021/05/02 03:08:56;;;;;;;8.58;4.80;;;;;;;14.07;79.76;98918.61;130334;1098;22516;-63
2021/05/02 03:11:25;;;;;;;5.00;4.10;;;;;;;14.08;79.35;98929.27;130351;1098;23170;-63
2021/05/02 03:13:53;;;;;;;6.08;5.10;;;;;;;14.08;79.48;98923.80;130305;1098;22673;-60
2021/05/02 03:16:25;;;;;;;8.13;5.00;;;;;;;14.10;79.56;98924.32;130366;1098;23279;-60
2021/05/02 03:19:24;;;;;;;5.83;4.88;;;;;;;14.11;79.69;98917.73;130336;1098;23278;-61
2021/05/02 03:21:52;;;;;;;;;;;;;;;14.13;79.86;98922.92;130395;1098;22516;-61
2021/05/02 03:24:29;;;;;;;6.70;4.55;;;;;;;14.13;79.70;98920.99;130331;1098;21863;-60
2021/05/02 03:27:18;;;;;;;5.80;3.65;;;;;;;14.16;79.98;98919.56;130396;1098;23762;-61
2021/05/02 03:29:47;;;;;;;5.90;4.55;;;;;;;14.17;79.60;98918.45;130297;1098;22674;-61
2021/05/02 03:32:16;;;;;;;7.60;4.75;;;;;;;14.19;79.53;98916.23;130374;1098;22676;-61
2021/05/02 03:34:44;;;;;;;5.68;4.58;;;;;;;14.22;80.10;98917.58;130316;1098;23382;-61
2021/05/02 03:37:15;;;;;;;5.87;4.10;;;;;;;14.24;79.73;98915.36;126567;1098;26507;-62
2021/05/02 03:39:47;;;;;;;5.25;4.40;;;;;;;14.24;80.08;98921.66;130219;1098;22591;-62
2021/05/02 03:42:15;;;;;;;6.58;4.75;;;;;;;14.25;79.91;98922.47;130359;1098;22554;-63
2021/05/02 03:44:43;;;;;;;7.98;4.85;;;;;;;14.25;80.23;98923.28;130324;1098;23232;-63
2021/05/02 03:47:11;;;;;;;5.93;4.53;;;;;;;14.29;79.75;98928.97;130392;1098;22551;-62
2021/05/02 03:49:41;;;;;;;6.15;4.65;;;;;;;14.31;79.76;98934.97;130325;1098;23691;-62
2021/05/02 03:52:13;;;;;;;6.85;4.48;;;;;;;14.34;79.93;98934.38;130378;1098;22538;-63
2021/05/02 03:54:42;;;;;;;7.98;4.30;;;;;;;14.36;79.94;98929.42;130307;1098;22529;-63
2021/05/02 03:57:10;;;;;;;5.63;4.45;;;;;;;14.40;80.06;98928.57;130381;1098;22547;-62
2021/05/02 03:59:38;;;;;;;6.23;4.55;;;;;;;14.44;80.14;98926.84;130352;1098;22644;-62
2021/05/02 04:02:07;;;;;;;5.28;4.38;;;;;;;14.47;79.93;98923.51;130314;1098;22537;-62
2021/05/02 04:04:35;;;;;;;7.75;4.60;;;;;;;14.51;79.78;98923.73;130293;1098;22691;-62
2021/05/02 04:07:04;;;;;;;5.63;4.38;;;;;;;14.54;79.42;98923.15;130347;1098;22509;-62
2021/05/02 04:09:36;;;;;;;5.18;3.85;;;;;;;14.60;79.49;98919.19;130289;1098;22660;-62
2021/05/02 04:12:07;;;;;;;6.20;4.55;;;;;;;14.65;79.38;98904.59;130361;1098;22561;-62
2021/05/02 04:14:35;;;;;;;7.10;4.60;;;;;;;14.67;79.37;98900.45;130341;1098;22534;-62
2021/05/02 04:17:11;;;;;;;5.73;4.58;;;;;;;14.69;79.64;98898.22;130388;1098;22619;-62
2021/05/02 04:19:44;;;;;;;6.85;4.60;;;;;;;14.71;79.33;98897.92;130328;1098;22660;-62
2021/05/02 04:22:13;;;;;;;7.93;4.38;;;;;;;14.74;79.42;98900.05;130358;1098;22532;-62
2021/05/02 04:24:42;;;;;;;7.28;4.48;;;;;;;14.75;79.04;98901.67;130383;1098;22498;-62
2021/05/02 04:27:09;;;;;;;7.28;4.40;;;;;;;14.76;78.84;98898.63;130299;1098;22536;-62
2021/05/02 04:29:40;;;;;;;6.05;3.85;;;;;;;14.78;79.06;98901.08;130329;1098;22647;-62
2021/05/02 04:32:08;;;;;;;8.48;4.45;;;;;;;14.79;79.30;98900.78;130367;1098;22594;-62
2021/05/02 04:34:36;;;;;;;7.50;4.30;;;;;;;14.82;78.85;98891.95;130374;1098;22652;-62
2021/05/02 04:37:04;;;;;;;5.80;4.20;;;;;;;14.84;78.83;98889.73;130289;1098;22555;-62
2021/05/02 04:39:33;;;;;;;4.88;3.85;;;;;;;14.85;78.78;98882.32;130375;1098;22662;-62
2021/05/02 04:42:01;;;;;;;5.80;4.03;;;;;;;14.85;78.77;98890.55;130356;1098;22556;-62
2021/05/02 04:44:29;;;;;;;5.13;4.13;;;;;;;14.90;78.83;98898.67;130366;1098;22563;-62
2021/05/02 04:46:57;;;;;;;8.63;5.25;;;;;;;14.91;79.01;98889.33;130328;1098;22565;-62
2021/05/02 04:49:26;;;;;;;6.13;4.55;;;;;;;14.95;78.49;98904.08;130397;1098;23576;-62
2021/05/02 04:51:53;;;;;;;8.70;5.18;;;;;;;14.96;78.53;98900.22;130345;1098;23119;-62
2021/05/02 04:54:21;;;;;;;6.50;3.93;;;;;;;14.97;78.78;98909.27;130365;1098;22548;-61
2021/05/02 04:56:49;;;;;;;6.73;4.33;;;;;;;14.99;78.60;98905.11;130343;1098;22510;-61
2021/05/02 04:59:17;;;;;;;5.40;3.90;;;;;;;15.00;78.95;98895.77;130383;1098;23595;-61
2021/05/02 05:01:45;;;;;;;6.70;4.58;;;;;;;15.02;78.81;98898.98;130333;1098;22522;-61
2021/05/02 05:04:14;;;;;;;6.00;4.70;;;;;;;15.04;78.80;98895.95;130372;1098;22545;-61
2021/05/02 05:06:41;;;;;;;5.23;4.38;;;;;;;15.05;78.73;98889.34;127621;1098;29584;-57
2021/05/02 05:09:10;;;;;;;6.05;4.78;;;;;;;15.06;78.73;98897.28;130273;1098;22569;-58
2021/05/02 05:11:38;;;;;;;6.78;4.85;;;;;;;15.08;78.75;98895.05;130373;1098;22869;-58
2021/05/02 05:14:06;;;;;;;10.90;4.98;;;;;;;15.10;78.68;98900.23;130386;1098;22540;-58
2021/05/02 05:16:34;;;;;;;7.90;5.10;;;;;;;15.10;78.60;98895.56;130331;1098;22747;-59
2021/05/02 05:19:02;;;;;;;8.50;4.90;;;;;;;15.11;78.75;98894.45;130343;1098;22548;-58
2021/05/02 05:21:31;;;;;;;6.00;4.55;;;;;;;15.13;78.64;98896.90;130371;1098;22577;-59
2021/05/02 05:24:00;;;;;;;7.65;4.40;;;;;;;15.14;78.96;98902.09;130316;1098;22529;-59
2021/05/02 05:26:28;;;;;;;4.53;4.13;;;;;;;15.15;78.81;98898.20;130373;1098;22553;-58
2021/05/02 05:28:56;;;;;;;7.65;4.90;;;;;;;15.19;78.57;98896.48;130350;1098;22558;-59
2021/05/02 05:31:24;;;;;;;5.23;4.45;;;;;;;15.26;78.77;98895.28;130395;1098;23487;-59
2021/05/02 05:33:52;;;;;;;10.90;4.58;;;;;;;15.29;78.49;98892.75;130339;1098;22554;-58
2021/05/02 05:36:33;;;;;;;6.73;4.38;;;;;;;15.33;78.74;98898.42;130355;1098;22553;-59
2021/05/02 05:39:05;;;;;;;6.13;4.38;;;;;;;15.36;78.48;98889.58;130320;1098;22584;-59
2021/05/02 05:41:33;;;;;;;6.10;4.53;;;;;;;15.40;78.73;98885.12;125740;1098;22770;-62
2021/05/02 05:44:02;;;;;;;6.13;4.98;;;;;;;15.44;78.36;98886.11;130330;1098;22526;-63
2021/05/02 05:46:30;;;;;;;7.30;4.38;;;;;;;15.48;78.42;98885.20;130328;1098;22550;-61
2021/05/02 05:48:58;;;;;;;5.63;4.88;;;;;;;15.53;78.37;98884.30;130333;1098;22572;-63
2021/05/02 05:51:26;;;;;;;7.70;5.43;;;;;;;15.58;77.99;98889.73;130328;1098;22538;-63
2021/05/02 05:53:54;;;;;;;6.48;4.70;;;;;;;15.61;78.04;98888.28;130352;1098;22654;-62
2021/05/02 05:56:22;;;;;;;7.98;4.43;;;;;;;15.63;78.26;98881.36;130359;1098;22509;-64
2021/05/02 05:58:50;;;;;;;5.78;4.78;;;;;;;15.68;78.18;98880.45;130336;1098;22594;-62
2021/05/02 06:01:18;;;;;;;8.43;4.88;;;;;;;15.72;78.24;98875.98;130355;1098;22530;-62
2021/05/02 06:03:47;;;;;;;6.33;4.57;;;;;;;15.78;78.02;98871.98;130345;1098;23419;-61
2021/05/02 06:06:15;;;;;;;7.45;5.20;;;;;;;15.83;77.80;98866.39;130358;1098;22496;-62
2021/05/02 06:08:43;;;;;;;8.05;4.80;;;;;;;15.86;77.83;98860.29;130356;1098;22578;-63
2021/05/02 06:11:10;;;;;;;10.03;5.13;;;;;;;15.89;77.56;98873.38;130302;1098;22569;-63
2021/05/02 06:13:38;;;;;;;7.25;5.40;;;;;;;15.92;77.63;98870.02;130319;1098;22531;-62
2021/05/02 06:16:07;;;;;;;9.23;5.83;;;;;;;15.94;77.81;98867.78;128570;1098;22760;-63
2021/05/02 06:18:35;;;;;;;8.70;5.60;;;;;;;15.98;77.72;98862.49;130363;1098;23266;-62
2021/05/02 06:21:03;;;;;;;7.38;5.70;;;;;;;16.04;77.63;98874.98;130325;1098;22579;-62
2021/05/02 06:23:31;;;;;;;10.35;5.78;;;;;;;16.09;77.38;98861.13;130390;1098;23807;-61
2021/05/02 06:25:58;;;;;;;9.23;5.85;;;;;;;16.11;76.90;98867.13;130337;1098;22550;-62
2021/05/02 06:28:26;;;;;;;10.88;5.33;;;;;;;16.11;76.92;98856.14;130381;1098;22549;-62
2021/05/02 06:30:54;;;;;;;8.20;5.60;;;;;;;16.14;76.37;98855.52;130341;1098;22553;-62
2021/05/02 06:33:23;;;;;;;7.03;5.48;;;;;;;16.17;76.23;98865.88;130034;1099;22536;-62
2021/05/02 06:35:51;;;;;;;8.83;5.80;;;;;;;16.20;76.34;98871.57;130304;1098;22529;-62
2021/05/02 06:38:19;;;;;;;8.10;6.03;;;;;;;16.22;76.24;98863.83;130336;1098;23212;-64
2021/05/02 06:40:47;;;;;;;7.85;5.63;;;;;;;16.25;75.99;98860.47;130352;1098;22562;-64
2021/05/02 06:43:15;;;;;;;8.90;6.30;;;;;;;16.30;76.15;98864.23;130383;1098;22571;-64
2021/05/02 06:45:43;;;;;;;7.80;5.70;;;;;;;16.33;76.10;98869.08;130354;1098;23257;-65
2021/05/02 06:48:11;;;;;;;9.40;6.05;;;;;;;16.34;75.86;98871.52;130097;1098;22623;-64
2021/05/02 06:50:39;;;;;;;7.60;5.75;;;;;;;16.36;75.75;98871.20;130316;1098;22560;-64
2021/05/02 06:53:07;;;;;;;12.63;6.43;;;;;;;16.36;75.95;98888.52;130405;1099;22689;-64
2021/05/02 06:55:35;;;;;;;13.40;6.20;;;;;;;16.38;76.21;98905.52;129555;1098;22770;-64
2021/05/02 06:58:03;;;;;;;10.08;5.93;;;;;;;16.40;76.15;98911.53;130231;1098;22578;-64
2021/05/02 07:00:31;;;;;;;16.70;6.20;;;;;;;16.43;76.19;98919.16;130363;1098;23140;-64
2021/05/02 07:02:59;;;;;;;8.07;5.73;;;;;;;16.45;75.67;98910.57;130360;1098;22599;-64
2021/05/02 07:05:27;;;;;;;9.35;6.30;;;;;;;16.43;75.37;98890.84;130393;1098;23065;-64
2021/05/02 07:07:56;;;;;;;11.55;6.75;;;;;;;16.39;75.55;98893.41;130346;1097;22609;-64
2021/05/02 07:10:24;;;;;;;9.53;5.98;;;;;;;16.37;75.39;98900.33;130352;1098;22613;-64
2021/05/02 07:12:52;;;;;;;9.80;6.55;;;;;;;16.33;75.40;98904.81;130365;1098;22528;-64
2021/05/02 07:15:21;;;;;;;12.80;6.70;;;;;;;16.30;75.32;98898.03;130406;1098;23206;-64
2021/05/02 07:17:51;;;;;;;14.13;6.93;;;;;;;16.26;75.05;98900.58;130308;1098;22578;-64
2021/05/02 07:20:19;;;;;;;10.48;6.85;;;;;;;16.24;75.45;98902.82;130348;1098;22570;-64
2021/05/02 07:22:52;;;;;;;19.63;7.15;;;;;;;16.22;75.36;98904.25;130355;1098;23078;-64
2021/05/02 07:25:22;;;;;;;13.40;6.90;;;;;;;16.20;75.61;98906.48;130345;1098;22526;-64
2021/05/02 07:27:51;;;;;;;9.73;6.55;;;;;;;16.18;75.35;98905.98;130337;1098;22519;-64
2021/05/02 07:30:19;;;;;;;10.75;6.63;;;;;;;16.18;75.69;98904.05;130415;1098;22553;-64
2021/05/02 07:32:51;;;;;;;12.18;7.45;;;;;;;16.21;75.77;98897.94;130344;1098;22610;-64
2021/05/02 07:35:19;;;;;;;12.53;7.00;;;;;;;16.23;75.54;98884.70;130357;1098;22582;-64
2021/05/02 07:37:47;;;;;;;12.23;6.98;;;;;;;16.28;75.59;98882.97;130315;1098;22528;-65
2021/05/02 07:40:15;;;;;;;11.55;6.63;;;;;;;16.32;75.56;98879.26;130335;1098;22529;-64
2021/05/02 07:42:42;;;;;;;12.45;7.65;;;;;;;16.39;75.62;98887.09;130324;1098;22547;-64
2021/05/02 07:45:10;;;;;;;11.80;8.05;;;;;;;16.44;75.51;98887.80;130375;1098;22577;-64
2021/05/02 07:47:40;;;;;;;11.77;7.00;;;;;;;16.48;75.22;98872.27;130364;1098;22545;-64
2021/05/02 07:50:09;;;;;;;18.13;7.40;;;;;;;16.52;75.03;98883.47;130391;1098;23279;-65
2021/05/02 07:52:37;;;;;;;15.40;6.83;;;;;;;16.55;74.65;98880.91;130337;1098;22541;-62
2021/05/02 07:55:05;;;;;;;14.28;7.75;;;;;;;16.58;74.86;98876.73;130343;1098;22585;-58
2021/05/02 07:57:41;;;;;;;14.90;7.65;;;;;;;16.59;74.77;98873.64;130343;1098;22555;-66
2021/05/02 08:00:09;;;;;;;10.60;7.23;;;;;;;16.61;74.65;98867.83;130390;1097;23102;-61
2021/05/02 08:02:42;;;;;;;15.60;8.63;;;;;;;16.62;74.50;98866.70;130332;1098;22548;-60
2021/05/02 08:05:10;;;;;;;16.25;8.35;;;;;;;16.63;74.42;98873.86;130288;1098;22667;-62
2021/05/02 08:07:38;;;;;;;13.43;7.98;;;;;;;16.65;74.38;98881.80;130353;1098;22607;-62
2021/05/02 08:10:09;;;;;;;14.43;9.93;;;;;;;16.65;74.19;98870.80;130325;1098;23333;-62
2021/05/02 08:12:37;;;;;;;16.68;9.88;;;;;;;16.65;74.23;98868.05;130371;1098;22553;-62
2021/05/02 08:15:06;;;;;;;12.73;10.23;;;;;;;16.66;74.15;98866.92;130329;1098;22649;-62
2021/05/02 08:17:34;;;;;;;25.55;11.35;;;;;;;16.63;74.32;98862.05;130358;1098;22684;-62
2021/05/02 08:20:05;;;;;;;16.28;11.18;;;;;;;16.62;74.32;98861.20;130317;1098;23321;-63
2021/05/02 08:22:32;;;;;;;23.38;12.60;;;;;;;16.63;74.22;98854.61;130392;1098;22550;-61
2021/05/02 08:25:00;;;;;;;51.88;46.98;;;;;;;16.64;74.28;98844.42;130340;1098;22586;-67
2021/05/02 08:27:28;;;;;;;33.43;29.83;;;;;;;16.65;73.94;98837.80;130358;1098;22544;-67
2021/05/02 08:29:56;;;;;;;22.83;17.38;;;;;;;16.68;74.32;98843.48;130305;1098;22533;-63
2021/05/02 08:32:24;;;;;;;22.73;13.65;;;;;;;16.72;74.36;98849.99;130384;1098;23555;-66
2021/05/02 08:34:52;;;;;;;53.23;38.68;;;;;;;16.75;74.34;98843.02;130324;1098;24201;-65
2021/05/02 08:37:20;;;;;;;100.73;89.73;;;;;;;16.78;74.04;98845.16;130401;1098;23093;-68
2021/05/02 08:39:49;;;;;;;23.85;18.38;;;;;;;16.79;73.75;98839.34;130345;1098;23142;-67
2021/05/02 08:42:17;;;;;;;18.98;14.03;;;;;;;16.80;73.73;98824.45;130391;1098;22632;-68
2021/05/02 08:44:45;;;;;;;24.68;12.55;;;;;;;16.81;73.82;98836.27;130376;1098;22664;-61
2021/05/02 08:47:13;;;;;;;21.75;11.23;;;;;;;16.82;74.08;98827.70;130352;1098;23484;-65
2021/05/02 08:49:42;;;;;;;18.20;12.75;;;;;;;16.85;74.08;98820.77;130371;1098;23257;-64
2021/05/02 08:52:11;;;;;;;21.85;11.85;;;;;;;16.88;73.87;98817.39;130351;1098;22557;-62
2021/05/02 08:54:40;;;;;;;91.90;82.90;;;;;;;16.91;73.92;98814.80;130345;1098;22545;-69
2021/05/02 08:57:10;;;;;;;57.48;50.53;;;;;;;16.95;73.72;98806.72;130314;1098;22529;-69
2021/05/02 08:59:38;;;;;;;21.93;15.63;;;;;;;16.97;73.58;98798.97;130377;1098;22558;-66
2021/05/02 09:02:06;;;;;;;22.25;16.08;;;;;;;16.99;73.43;98799.46;130318;1098;23308;-69
2021/05/02 09:04:40;;;;;;;21.18;13.00;;;;;;;17.00;73.35;98794.77;130333;1098;22594;-68
2021/05/02 09:07:14;;;;;;;27.20;14.30;;;;;;;17.00;73.31;98794.77;126242;1098;22915;-67
2021/05/02 09:09:43;;;;;;;248.78;223.75;;;;;;;17.01;73.37;98797.20;125922;1098;22746;-67
2021/05/02 09:12:20;;;;;;;38.00;33.80;;;;;;;17.04;73.39;98785.54;130357;1098;22633;-70
2021/05/02 09:15:03;;;;;;;34.25;22.50;;;;;;;17.08;73.27;98783.78;130364;1098;22682;-67
2021/05/02 09:17:38;;;;;;;32.50;21.45;;;;;;;17.11;73.23;98793.34;130341;1098;22548;-66
2021/05/02 09:20:08;;;;;;;106.38;88.25;;;;;;;17.11;73.08;98794.16;130349;1098;22577;-82
2021/05/02 09:22:37;;;;;;;50.80;40.25;;;;;;;17.15;73.12;98797.91;130341;1098;22748;-71
2021/05/02 09:25:10;;;;;;;34.03;26.18;;;;;;;17.17;73.07;98792.88;130374;1098;22634;-77
2021/05/02 09:27:50;;;;;;;37.70;26.17;;;;;;;17.20;72.84;98792.23;128567;1098;22807;-75
2021/05/02 09:30:20;;;;;;;46.18;35.68;;;;;;;17.23;73.03;98794.36;127560;1098;23828;-71
2021/05/02 09:32:49;;;;;;;29.10;21.03;;;;;;;17.22;72.58;98786.41;127371;1093;26201;-67
2021/05/02 09:35:28;;;;;;;27.63;15.70;;;;;;;17.22;72.67;98787.23;130011;1099;22540;-63
2021/05/02 09:38:11;;;;;;;25.50;14.53;;;;;;;17.21;72.54;98780.09;130284;1098;22630;-64
2021/05/02 09:40:52;;;;;;;23.85;13.78;;;;;;;17.20;72.53;98780.41;130374;1098;22564;-64
2021/05/02 09:43:41;;;;;;;22.95;14.55;;;;;;;17.15;72.84;98778.64;130349;1098;23500;-64
2021/05/02 09:46:29;;;;;;;22.98;13.23;;;;;;;17.12;72.68;98783.97;130389;1098;22505;-64
2021/05/02 09:49:15;;;;;;;26.88;15.40;;;;;;;17.11;73.01;98776.83;130338;1098;22620;-65
2021/05/02 09:51:48;;;;;;;16.45;13.70;;;;;;;17.09;72.94;98771.64;130393;1098;22744;-64
2021/05/02 09:54:26;;;;;;;23.75;15.50;;;;;;;17.07;73.29;98762.08;130367;1098;22543;-64
2021/05/02 09:56:55;;;;;;;21.77;15.15;;;;;;;17.05;73.33;98754.14;130386;1098;23665;-64
2021/05/02 09:59:32;;;;;;;48.15;32.85;;;;;;;17.01;72.99;98746.86;130317;1098;22578;-64
2021/05/02 10:02:13;;;;;;;41.30;27.00;;;;;;;16.96;73.22;98750.56;130381;1098;22547;-64
2021/05/02 10:04:56;;;;;;;30.20;17.30;;;;;;;16.92;73.48;98761.38;130323;1098;22564;-64
2021/05/02 10:08:06;;;;;;;19.63;13.70;;;;;;;16.85;73.75;98779.49;125539;1090;25819;-62
2021/05/02 10:10:36;;;;;;;25.35;13.98;;;;;;;16.77;74.03;98788.50;129998;1101;22622;-64
2021/05/02 10:13:04;;;;;;;24.33;13.50;;;;;;;16.72;74.06;98788.66;129980;1101;22647;-64
2021/05/02 10:15:37;;;;;;;21.85;12.65;;;;;;;16.65;74.51;98791.84;129973;1101;22724;-63
2021/05/02 10:18:05;;;;;;;23.10;13.55;;;;;;;16.61;74.99;98788.06;129960;1101;23134;-63
2021/05/02 10:20:34;;;;;;;23.55;14.00;;;;;;;16.58;75.34;98797.78;129975;1101;23783;-65
2021/05/02 10:23:03;;;;;;;24.98;15.33;;;;;;;16.56;75.62;98799.22;129945;1101;22553;-64
2021/05/02 10:25:31;;;;;;;22.90;15.73;;;;;;;16.53;75.85;98797.09;129921;1101;23319;-61
2021/05/02 10:27:58;;;;;;;25.60;13.73;;;;;;;16.51;75.82;98800.16;129966;1101;22571;-61
2021/05/02 10:30:31;;;;;;;27.38;16.53;;;;;;;16.49;76.17;98804.34;129914;1101;23677;-62
2021/05/02 10:33:09;;;;;;;29.23;20.73;;;;;;;16.49;76.63;98807.09;129961;1101;23738;-63
2021/05/02 10:35:54;;;;;;;29.73;17.18;;;;;;;16.47;76.66;98803.84;129976;1101;23558;-63
2021/05/02 10:38:22;;;;;;;27.03;14.93;;;;;;;16.41;76.41;98810.61;129946;1101;23001;-63
2021/05/02 10:40:50;;;;;;;22.63;14.60;;;;;;;16.39;76.94;98805.42;126555;1101;22924;-61
2021/05/02 10:43:29;;;;;;;24.05;14.55;;;;;;;16.37;77.19;98799.42;125347;1101;24190;-62
2021/05/02 10:45:58;;;;;;;27.83;18.28;;;;;;;16.37;77.43;98807.66;129873;1101;22668;-62
2021/05/02 10:48:27;;;;;;;25.65;15.23;;;;;;;16.36;77.52;98803.30;129964;1101;22616;-64
2021/05/02 10:50:55;;;;;;;24.20;14.63;;;;;;;16.38;77.89;98791.98;129950;1101;22574;-63
2021/05/02 10:53:24;;;;;;;20.58;13.93;;;;;;;16.38;78.16;98792.80;130002;1101;22634;-63
2021/05/02 10:55:53;;;;;;;20.28;14.93;;;;;;;16.40;78.15;98785.05;129995;1101;22607;-65
2021/05/02 10:58:26;;;;;;;20.75;14.95;;;;;;;16.42;78.26;98777.30;129979;1101;22519;-63
2021/05/02 11:01:03;;;;;;;21.00;14.55;;;;;;;16.45;78.52;98760.16;129926;1101;22656;-63
2021/05/02 11:03:40;;;;;;;21.15;13.78;;;;;;;16.49;78.65;98763.91;130021;1101;22621;-64
2021/05/02 11:06:12;;;;;;;23.25;14.63;;;;;;;16.55;78.84;98762.66;130006;1101;22549;-64
2021/05/02 11:09:00;;;;;;;20.58;13.63;;;;;;;16.61;79.13;98760.56;130043;1101;23685;-64
2021/05/02 11:11:39;;;;;;;19.45;12.38;;;;;;;16.65;78.88;98760.78;129971;1101;22569;-64
2021/05/02 11:14:10;;;;;;;21.45;12.58;;;;;;;16.67;78.57;98758.53;130010;1101;22566;-64
2021/05/02 11:16:42;;;;;;;16.40;10.75;;;;;;;16.65;78.13;98760.78;129992;1101;22559;-64
2021/05/02 11:19:22;;;;;;;16.70;11.68;;;;;;;16.66;77.80;98765.97;130000;1101;22677;-64
2021/05/02 11:21:55;;;;;;;22.95;13.43;;;;;;;16.65;77.98;98767.09;129999;1101;22648;-64
2021/05/02 11:24:24;;;;;;;20.70;13.78;;;;;;;16.65;78.08;98766.28;130021;1101;22577;-64
2021/05/02 11:29:32;;;;;;;20.10;12.55;;;;;;;16.61;78.04;98761.38;130025;1101;22605;-64
2021/05/02 11:32:00;;;;;;;16.68;12.53;;;;;;;16.63;78.23;98752.03;129973;1101;22612;-62
2021/05/02 11:35:04;;;;;;;20.20;12.90;;;;;;;16.62;78.08;98751.19;129946;1101;22557;-62
2021/05/02 11:37:44;;;;;;;19.00;12.03;;;;;;;16.59;78.06;98747.13;129644;1104;22570;-65